sensor_id;sensor_type;location;lat;lon;timestamp;P1;P2;P0
62054;PMS5003;48653;51.742;-1.256;2023-01-05T00:03:45;16;9;
62054;PMS5003;48653;51.742;-1.256;2023-01-05T00:06:10;18;9;
62054;PMS5003;48653;51.742;-1.256;2023-01-05T00:08:35;12;8;
62054;PMS5003;48653;51.742;-1.256;2023-01-05T00:11:02;22;10;
62054;PMS5003;48653;51.742;-1.256;2023-01-05T00:13:25;17;9;
62054;PMS5003;48653;51.742;-1.256;2023-01-05T00:15:51;12;8;
62054;PMS5003;48653;51.742;-1.256;2023-01-05T00:18:16;25;11;
62054;PMS5003;48653;51.742;-1.256;2023-01-05T00:20:42;23;13;
62054;PMS5003;48653;51.742;-1.256;2023-01-05T00:23:08;16;13;
62054;PMS5003;48653;51.742;-1.256;2023-01-05T00:25:36;24;10;
62054;PMS5003;48653;51.742;-1.256;2023-01-05T00:27:59;13;7;
62054;PMS5003;48653;51.742;-1.256;2023-01-05T00:30:24;13;10;
62054;PMS5003;48653;51.742;-1.256;2023-01-05T00:32:50;15;7;
62054;PMS5003;48653;51.742;-1.256;2023-01-05T00:35:15;17;9;
62054;PMS5003;48653;51.742;-1.256;2023-01-05T00:37:40;16;10;
62054;PMS5003;48653;51.742;-1.256;2023-01-05T00:40:06;14;7;
62054;PMS5003;48653;51.742;-1.256;2023-01-05T00:42:30;18;10;
62054;PMS5003;48653;51.742;-1.256;2023-01-05T00:44:56;23;13;
62054;PMS5003;48653;51.742;-1.256;2023-01-05T00:47:22;16;11;
62054;PMS5003;48653;51.742;-1.256;2023-01-05T00:49:47;21;10;
62054;PMS5003;48653;51.742;-1.256;2023-01-05T00:52:13;13;9;
62054;PMS5003;48653;51.742;-1.256;2023-01-05T00:54:38;18;11;
62054;PMS5003;48653;51.742;-1.256;2023-01-05T00:57:04;18;10;
62054;PMS5003;48653;51.742;-1.256;2023-01-05T00:59:29;18;10;
62054;PMS5003;48653;51.742;-1.256;2023-01-05T01:01:55;20;14;
62054;PMS5003;48653;51.742;-1.256;2023-01-05T01:04:20;24;12;
62054;PMS5003;48653;51.742;-1.256;2023-01-05T01:06:45;16;10;
62054;PMS5003;48653;51.742;-1.256;2023-01-05T01:09:11;21;10;
62054;PMS5003;48653;51.742;-1.256;2023-01-05T01:11:37;12;7;
62054;PMS5003;48653;51.742;-1.256;2023-01-05T01:14:02;22;13;
62054;PMS5003;48653;51.742;-1.256;2023-01-05T01:16:28;16;11;
62054;PMS5003;48653;51.742;-1.256;2023-01-05T01:18:53;15;8;
62054;PMS5003;48653;51.742;-1.256;2023-01-05T01:21:18;16;8;
62054;PMS5003;48653;51.742;-1.256;2023-01-05T01:23:44;14;8;
62054;PMS5003;48653;51.742;-1.256;2023-01-05T01:26:09;24;13;
62054;PMS5003;48653;51.742;-1.256;2023-01-05T01:28:36;17;7;
62054;PMS5003;48653;51.742;-1.256;2023-01-05T01:31:00;21;13;
62054;PMS5003;48653;51.742;-1.256;2023-01-05T01:33:26;27;12;
62054;PMS5003;48653;51.742;-1.256;2023-01-05T01:35:51;17;10;
62054;PMS5003;48653;51.742;-1.256;2023-01-05T01:38:16;17;11;
62054;PMS5003;48653;51.742;-1.256;2023-01-05T01:40:42;20;16;
62054;PMS5003;48653;51.742;-1.256;2023-01-05T01:43:10;22;12;
62054;PMS5003;48653;51.742;-1.256;2023-01-05T01:45:33;15;13;
62054;PMS5003;48653;51.742;-1.256;2023-01-05T01:47:59;19;10;
62054;PMS5003;48653;51.742;-1.256;2023-01-05T01:50:25;17;14;
62054;PMS5003;48653;51.742;-1.256;2023-01-05T01:52:50;23;13;
62054;PMS5003;48653;51.742;-1.256;2023-01-05T01:55:15;16;8;
62054;PMS5003;48653;51.742;-1.256;2023-01-05T01:57:40;17;9;
62054;PMS5003;48653;51.742;-1.256;2023-01-05T02:00:08;24;13;
62054;PMS5003;48653;51.742;-1.256;2023-01-05T02:02:31;24;16;
62054;PMS5003;48653;51.742;-1.256;2023-01-05T02:04:58;19;8;
62054;PMS5003;48653;51.742;-1.256;2023-01-05T02:07:22;14;8;
62054;PMS5003;48653;51.742;-1.256;2023-01-05T02:09:47;23;12;
62054;PMS5003;48653;51.742;-1.256;2023-01-05T02:12:17;12;7;
62054;PMS5003;48653;51.742;-1.256;2023-01-05T02:14:40;28;11;
62054;PMS5003;48653;51.742;-1.256;2023-01-05T02:17:08;17;9;
62054;PMS5003;48653;51.742;-1.256;2023-01-05T02:19:48;10;6;
62054;PMS5003;48653;51.742;-1.256;2023-01-05T02:21:55;17;13;
62054;PMS5003;48653;51.742;-1.256;2023-01-05T02:24:28;10;8;
62054;PMS5003;48653;51.742;-1.256;2023-01-05T02:26:52;19;10;
62054;PMS5003;48653;51.742;-1.256;2023-01-05T02:29:19;12;8;
62054;PMS5003;48653;51.742;-1.256;2023-01-05T02:31:35;21;14;
62054;PMS5003;48653;51.742;-1.256;2023-01-05T02:34:05;14;9;
62054;PMS5003;48653;51.742;-1.256;2023-01-05T02:36:27;13;7;
62054;PMS5003;48653;51.742;-1.256;2023-01-05T02:38:52;18;6;
62054;PMS5003;48653;51.742;-1.256;2023-01-05T02:41:18;15;8;
62054;PMS5003;48653;51.742;-1.256;2023-01-05T02:43:42;17;6;
62054;PMS5003;48653;51.742;-1.256;2023-01-05T02:46:07;19;9;
62054;PMS5003;48653;51.742;-1.256;2023-01-05T02:48:33;13;11;
62054;PMS5003;48653;51.742;-1.256;2023-01-05T02:51:00;12;10;
62054;PMS5003;48653;51.742;-1.256;2023-01-05T02:53:24;20;10;
62054;PMS5003;48653;51.742;-1.256;2023-01-05T02:55:50;19;11;
62054;PMS5003;48653;51.742;-1.256;2023-01-05T02:58:15;15;10;
62054;PMS5003;48653;51.742;-1.256;2023-01-05T03:00:40;16;8;
62054;PMS5003;48653;51.742;-1.256;2023-01-05T03:03:06;22;8;
62054;PMS5003;48653;51.742;-1.256;2023-01-05T03:05:31;15;6;
62054;PMS5003;48653;51.742;-1.256;2023-01-05T03:07:57;15;7;
62054;PMS5003;48653;51.742;-1.256;2023-01-05T03:10:21;17;10;
62054;PMS5003;48653;51.742;-1.256;2023-01-05T03:12:47;21;8;
62054;PMS5003;48653;51.742;-1.256;2023-01-05T03:15:13;16;7;
62054;PMS5003;48653;51.742;-1.256;2023-01-05T03:17:39;15;12;
62054;PMS5003;48653;51.742;-1.256;2023-01-05T03:20:03;22;9;
62054;PMS5003;48653;51.742;-1.256;2023-01-05T03:22:28;25;13;
62054;PMS5003;48653;51.742;-1.256;2023-01-05T03:24:53;17;12;
62054;PMS5003;48653;51.742;-1.256;2023-01-05T03:27:18;20;10;
62054;PMS5003;48653;51.742;-1.256;2023-01-05T03:29:44;12;6;
62054;PMS5003;48653;51.742;-1.256;2023-01-05T03:32:12;18;11;
62054;PMS5003;48653;51.742;-1.256;2023-01-05T03:34:36;13;8;
62054;PMS5003;48653;51.742;-1.256;2023-01-05T03:37:01;22;13;
62054;PMS5003;48653;51.742;-1.256;2023-01-05T03:39:25;13;7;
62054;PMS5003;48653;51.742;-1.256;2023-01-05T03:41:51;16;10;
62054;PMS5003;48653;51.742;-1.256;2023-01-05T03:44:16;16;9;
62054;PMS5003;48653;51.742;-1.256;2023-01-05T03:46:41;18;10;
62054;PMS5003;48653;51.742;-1.256;2023-01-05T03:49:06;20;11;
62054;PMS5003;48653;51.742;-1.256;2023-01-05T03:51:31;20;9;
62054;PMS5003;48653;51.742;-1.256;2023-01-05T03:53:57;8;5;
62054;PMS5003;48653;51.742;-1.256;2023-01-05T03:56:22;22;8;
62054;PMS5003;48653;51.742;-1.256;2023-01-05T03:58:48;11;8;
62054;PMS5003;48653;51.742;-1.256;2023-01-05T04:01:13;13;9;
62054;PMS5003;48653;51.742;-1.256;2023-01-05T04:03:39;21;8;
62054;PMS5003;48653;51.742;-1.256;2023-01-05T04:06:05;12;6;
62054;PMS5003;48653;51.742;-1.256;2023-01-05T04:08:29;16;8;
62054;PMS5003;48653;51.742;-1.256;2023-01-05T04:10:55;12;8;
62054;PMS5003;48653;51.742;-1.256;2023-01-05T04:13:20;18;11;
62054;PMS5003;48653;51.742;-1.256;2023-01-05T04:15:45;18;9;
62054;PMS5003;48653;51.742;-1.256;2023-01-05T04:18:10;22;12;
62054;PMS5003;48653;51.742;-1.256;2023-01-05T04:20:36;14;11;
62054;PMS5003;48653;51.742;-1.256;2023-01-05T04:23:02;19;10;
62054;PMS5003;48653;51.742;-1.256;2023-01-05T04:25:26;17;8;
62054;PMS5003;48653;51.742;-1.256;2023-01-05T04:27:52;16;10;
62054;PMS5003;48653;51.742;-1.256;2023-01-05T04:30:18;18;10;
62054;PMS5003;48653;51.742;-1.256;2023-01-05T04:32:43;13;8;
62054;PMS5003;48653;51.742;-1.256;2023-01-05T04:35:08;18;8;
62054;PMS5003;48653;51.742;-1.256;2023-01-05T04:37:34;10;7;
62054;PMS5003;48653;51.742;-1.256;2023-01-05T04:39:59;14;9;
62054;PMS5003;48653;51.742;-1.256;2023-01-05T04:42:25;21;14;
62054;PMS5003;48653;51.742;-1.256;2023-01-05T04:44:50;21;9;
62054;PMS5003;48653;51.742;-1.256;2023-01-05T04:47:16;18;10;
62054;PMS5003;48653;51.742;-1.256;2023-01-05T04:49:41;17;8;
62054;PMS5003;48653;51.742;-1.256;2023-01-05T04:52:06;20;13;
62054;PMS5003;48653;51.742;-1.256;2023-01-05T04:54:31;9;8;
62054;PMS5003;48653;51.742;-1.256;2023-01-05T04:59:22;19;9;
62054;PMS5003;48653;51.742;-1.256;2023-01-05T05:01:47;18;10;
62054;PMS5003;48653;51.742;-1.256;2023-01-05T05:04:13;12;12;
62054;PMS5003;48653;51.742;-1.256;2023-01-05T05:06:38;17;8;
62054;PMS5003;48653;51.742;-1.256;2023-01-05T05:09:03;12;7;
62054;PMS5003;48653;51.742;-1.256;2023-01-05T05:11:28;14;8;
62054;PMS5003;48653;51.742;-1.256;2023-01-05T05:13:53;18;9;
62054;PMS5003;48653;51.742;-1.256;2023-01-05T05:16:18;13;8;
62054;PMS5003;48653;51.742;-1.256;2023-01-05T05:18:44;14;6;
62054;PMS5003;48653;51.742;-1.256;2023-01-05T05:21:09;16;9;
62054;PMS5003;48653;51.742;-1.256;2023-01-05T05:23:35;12;8;
62054;PMS5003;48653;51.742;-1.256;2023-01-05T05:25:59;15;10;
62054;PMS5003;48653;51.742;-1.256;2023-01-05T05:28:25;16;9;
62054;PMS5003;48653;51.742;-1.256;2023-01-05T05:30:50;22;10;
62054;PMS5003;48653;51.742;-1.256;2023-01-05T05:33:16;12;8;
62054;PMS5003;48653;51.742;-1.256;2023-01-05T05:35:41;13;10;
62054;PMS5003;48653;51.742;-1.256;2023-01-05T05:38:06;11;8;
62054;PMS5003;48653;51.742;-1.256;2023-01-05T05:40:32;15;8;
62054;PMS5003;48653;51.742;-1.256;2023-01-05T05:42:57;7;5;
62054;PMS5003;48653;51.742;-1.256;2023-01-05T05:45:22;20;12;
62054;PMS5003;48653;51.742;-1.256;2023-01-05T05:47:47;15;10;
62054;PMS5003;48653;51.742;-1.256;2023-01-05T05:50:13;9;6;
62054;PMS5003;48653;51.742;-1.256;2023-01-05T05:52:39;12;7;
62054;PMS5003;48653;51.742;-1.256;2023-01-05T05:55:04;14;5;
62054;PMS5003;48653;51.742;-1.256;2023-01-05T05:57:29;12;10;
62054;PMS5003;48653;51.742;-1.256;2023-01-05T05:59:55;15;7;
62054;PMS5003;48653;51.742;-1.256;2023-01-05T06:02:20;14;9;
62054;PMS5003;48653;51.742;-1.256;2023-01-05T06:04:45;18;11;
62054;PMS5003;48653;51.742;-1.256;2023-01-05T06:09:35;11;5;
62054;PMS5003;48653;51.742;-1.256;2023-01-05T06:12:01;16;9;
62054;PMS5003;48653;51.742;-1.256;2023-01-05T06:14:26;11;7;
62054;PMS5003;48653;51.742;-1.256;2023-01-05T06:16:52;8;6;
62054;PMS5003;48653;51.742;-1.256;2023-01-05T06:19:17;13;7;
62054;PMS5003;48653;51.742;-1.256;2023-01-05T06:21:42;12;4;
62054;PMS5003;48653;51.742;-1.256;2023-01-05T06:24:08;9;5;
62054;PMS5003;48653;51.742;-1.256;2023-01-05T06:26:33;10;6;
62054;PMS5003;48653;51.742;-1.256;2023-01-05T06:28:58;12;6;
62054;PMS5003;48653;51.742;-1.256;2023-01-05T06:31:24;12;6;
62054;PMS5003;48653;51.742;-1.256;2023-01-05T06:33:49;8;5;
62054;PMS5003;48653;51.742;-1.256;2023-01-05T06:36:14;7;4;
62054;PMS5003;48653;51.742;-1.256;2023-01-05T06:38:39;11;6;
62054;PMS5003;48653;51.742;-1.256;2023-01-05T06:41:04;15;7;
62054;PMS5003;48653;51.742;-1.256;2023-01-05T06:43:30;18;7;
62054;PMS5003;48653;51.742;-1.256;2023-01-05T06:45:55;6;4;
62054;PMS5003;48653;51.742;-1.256;2023-01-05T06:48:21;10;4;
62054;PMS5003;48653;51.742;-1.256;2023-01-05T06:50:46;3;3;
62054;PMS5003;48653;51.742;-1.256;2023-01-05T06:53:12;9;3;
62054;PMS5003;48653;51.742;-1.256;2023-01-05T06:55:37;6;6;
62054;PMS5003;48653;51.742;-1.256;2023-01-05T06:58:03;9;6;
62054;PMS5003;48653;51.742;-1.256;2023-01-05T07:00:28;14;8;
62054;PMS5003;48653;51.742;-1.256;2023-01-05T07:02:54;10;4;
62054;PMS5003;48653;51.742;-1.256;2023-01-05T07:05:19;10;4;
62054;PMS5003;48653;51.742;-1.256;2023-01-05T07:07:45;10;7;
62054;PMS5003;48653;51.742;-1.256;2023-01-05T07:10:10;6;3;
62054;PMS5003;48653;51.742;-1.256;2023-01-05T07:12:35;6;3;
62054;PMS5003;48653;51.742;-1.256;2023-01-05T07:15:00;11;8;
62054;PMS5003;48653;51.742;-1.256;2023-01-05T07:17:26;11;5;
62054;PMS5003;48653;51.742;-1.256;2023-01-05T07:19:51;10;5;
62054;PMS5003;48653;51.742;-1.256;2023-01-05T07:22:17;8;4;
62054;PMS5003;48653;51.742;-1.256;2023-01-05T07:24:43;11;5;
62054;PMS5003;48653;51.742;-1.256;2023-01-05T07:27:08;6;2;
62054;PMS5003;48653;51.742;-1.256;2023-01-05T07:29:34;9;3;
62054;PMS5003;48653;51.742;-1.256;2023-01-05T07:31:59;13;6;
62054;PMS5003;48653;51.742;-1.256;2023-01-05T07:34:24;10;6;
62054;PMS5003;48653;51.742;-1.256;2023-01-05T07:36:50;6;4;
62054;PMS5003;48653;51.742;-1.256;2023-01-05T07:39:15;7;2;
62054;PMS5003;48653;51.742;-1.256;2023-01-05T07:41:41;5;2;
62054;PMS5003;48653;51.742;-1.256;2023-01-05T07:44:06;8;6;
62054;PMS5003;48653;51.742;-1.256;2023-01-05T07:46:32;3;3;
62054;PMS5003;48653;51.742;-1.256;2023-01-05T07:48:57;7;2;
62054;PMS5003;48653;51.742;-1.256;2023-01-05T07:51:23;5;2;
62054;PMS5003;48653;51.742;-1.256;2023-01-05T07:53:48;4;1;
62054;PMS5003;48653;51.742;-1.256;2023-01-05T07:56:13;6;1;
62054;PMS5003;48653;51.742;-1.256;2023-01-05T07:58:38;6;1;
62054;PMS5003;48653;51.742;-1.256;2023-01-05T08:01:03;3;2;
62054;PMS5003;48653;51.742;-1.256;2023-01-05T08:03:28;8;2;
62054;PMS5003;48653;51.742;-1.256;2023-01-05T08:05:53;7;1;
62054;PMS5003;48653;51.742;-1.256;2023-01-05T08:08:18;0;0;
62054;PMS5003;48653;51.742;-1.256;2023-01-05T08:10:43;1;1;
62054;PMS5003;48653;51.742;-1.256;2023-01-05T08:13:09;3;1;
62054;PMS5003;48653;51.742;-1.256;2023-01-05T08:15:33;3;2;
62054;PMS5003;48653;51.742;-1.256;2023-01-05T08:17:59;0;0;
62054;PMS5003;48653;51.742;-1.256;2023-01-05T08:20:24;7;2;
62054;PMS5003;48653;51.742;-1.256;2023-01-05T08:22:49;4;0;
62054;PMS5003;48653;51.742;-1.256;2023-01-05T08:25:14;3;1;
62054;PMS5003;48653;51.742;-1.256;2023-01-05T08:27:39;1;1;
62054;PMS5003;48653;51.742;-1.256;2023-01-05T08:30:05;5;3;
62054;PMS5003;48653;51.742;-1.256;2023-01-05T08:32:31;4;1;
62054;PMS5003;48653;51.742;-1.256;2023-01-05T08:34:55;4;0;
62054;PMS5003;48653;51.742;-1.256;2023-01-05T08:37:21;5;4;
62054;PMS5003;48653;51.742;-1.256;2023-01-05T08:39:46;4;2;
62054;PMS5003;48653;51.742;-1.256;2023-01-05T08:42:12;10;7;
62054;PMS5003;48653;51.742;-1.256;2023-01-05T08:44:37;1;0;
62054;PMS5003;48653;51.742;-1.256;2023-01-05T08:47:03;1;1;
62054;PMS5003;48653;51.742;-1.256;2023-01-05T08:49:28;2;2;
62054;PMS5003;48653;51.742;-1.256;2023-01-05T08:51:53;7;2;
62054;PMS5003;48653;51.742;-1.256;2023-01-05T08:54:18;7;1;
62054;PMS5003;48653;51.742;-1.256;2023-01-05T08:56:43;4;1;
62054;PMS5003;48653;51.742;-1.256;2023-01-05T08:59:10;6;4;
62054;PMS5003;48653;51.742;-1.256;2023-01-05T09:01:33;3;1;
62054;PMS5003;48653;51.742;-1.256;2023-01-05T09:03:59;4;1;
62054;PMS5003;48653;51.742;-1.256;2023-01-05T09:06:23;1;1;
62054;PMS5003;48653;51.742;-1.256;2023-01-05T09:08:49;2;2;
62054;PMS5003;48653;51.742;-1.256;2023-01-05T09:11:15;2;1;
62054;PMS5003;48653;51.742;-1.256;2023-01-05T09:13:40;3;2;
62054;PMS5003;48653;51.742;-1.256;2023-01-05T09:16:06;7;2;
62054;PMS5003;48653;51.742;-1.256;2023-01-05T09:18:30;2;2;
62054;PMS5003;48653;51.742;-1.256;2023-01-05T09:20:55;2;1;
62054;PMS5003;48653;51.742;-1.256;2023-01-05T09:23:21;2;1;
62054;PMS5003;48653;51.742;-1.256;2023-01-05T09:25:45;2;1;
62054;PMS5003;48653;51.742;-1.256;2023-01-05T09:28:11;6;3;
62054;PMS5003;48653;51.742;-1.256;2023-01-05T09:30:36;2;2;
62054;PMS5003;48653;51.742;-1.256;2023-01-05T09:33:01;8;2;
62054;PMS5003;48653;51.742;-1.256;2023-01-05T09:35:26;5;0;
62054;PMS5003;48653;51.742;-1.256;2023-01-05T09:37:51;5;2;
62054;PMS5003;48653;51.742;-1.256;2023-01-05T09:40:16;4;0;
62054;PMS5003;48653;51.742;-1.256;2023-01-05T09:42:42;5;1;
62054;PMS5003;48653;51.742;-1.256;2023-01-05T09:45:06;3;1;
62054;PMS5003;48653;51.742;-1.256;2023-01-05T09:47:33;1;1;
62054;PMS5003;48653;51.742;-1.256;2023-01-05T09:49:57;0;0;
62054;PMS5003;48653;51.742;-1.256;2023-01-05T09:52:21;2;1;
62054;PMS5003;48653;51.742;-1.256;2023-01-05T09:54:47;0;0;
62054;PMS5003;48653;51.742;-1.256;2023-01-05T09:57:13;2;0;
62054;PMS5003;48653;51.742;-1.256;2023-01-05T09:59:37;3;1;
62054;PMS5003;48653;51.742;-1.256;2023-01-05T10:02:02;3;2;
62054;PMS5003;48653;51.742;-1.256;2023-01-05T10:04:27;6;1;
62054;PMS5003;48653;51.742;-1.256;2023-01-05T10:06:52;5;3;
62054;PMS5003;48653;51.742;-1.256;2023-01-05T10:09:17;4;3;
62054;PMS5003;48653;51.742;-1.256;2023-01-05T10:11:45;1;1;
62054;PMS5003;48653;51.742;-1.256;2023-01-05T10:14:08;3;0;
62054;PMS5003;48653;51.742;-1.256;2023-01-05T10:16:32;4;1;
62054;PMS5003;48653;51.742;-1.256;2023-01-05T10:18:58;1;1;
62054;PMS5003;48653;51.742;-1.256;2023-01-05T10:21:25;4;1;
62054;PMS5003;48653;51.742;-1.256;2023-01-05T10:23:52;1;1;
62054;PMS5003;48653;51.742;-1.256;2023-01-05T10:26:15;0;0;
62054;PMS5003;48653;51.742;-1.256;2023-01-05T10:28:40;1;1;
62054;PMS5003;48653;51.742;-1.256;2023-01-05T10:31:05;0;0;
62054;PMS5003;48653;51.742;-1.256;2023-01-05T10:33:33;5;0;
62054;PMS5003;48653;51.742;-1.256;2023-01-05T10:35:56;0;0;
62054;PMS5003;48653;51.742;-1.256;2023-01-05T10:38:24;1;1;
62054;PMS5003;48653;51.742;-1.256;2023-01-05T10:40:48;2;2;
62054;PMS5003;48653;51.742;-1.256;2023-01-05T10:45:34;0;0;
62054;PMS5003;48653;51.742;-1.256;2023-01-05T10:47:59;3;2;
62054;PMS5003;48653;51.742;-1.256;2023-01-05T10:50:30;0;0;
62054;PMS5003;48653;51.742;-1.256;2023-01-05T10:52:50;0;0;
62054;PMS5003;48653;51.742;-1.256;2023-01-05T10:55:15;2;2;
62054;PMS5003;48653;51.742;-1.256;2023-01-05T10:57:39;3;0;
62054;PMS5003;48653;51.742;-1.256;2023-01-05T11:00:07;0;0;
62054;PMS5003;48653;51.742;-1.256;2023-01-05T11:02:30;0;0;
62054;PMS5003;48653;51.742;-1.256;2023-01-05T11:05:00;3;0;
62054;PMS5003;48653;51.742;-1.256;2023-01-05T11:07:20;3;2;
62054;PMS5003;48653;51.742;-1.256;2023-01-05T11:09:46;3;2;
62054;PMS5003;48653;51.742;-1.256;2023-01-05T11:12:13;1;0;
62054;PMS5003;48653;51.742;-1.256;2023-01-05T11:14:38;5;1;
62054;PMS5003;48653;51.742;-1.256;2023-01-05T11:17:02;3;2;
62054;PMS5003;48653;51.742;-1.256;2023-01-05T11:19:27;0;0;
62054;PMS5003;48653;51.742;-1.256;2023-01-05T11:21:50;0;0;
62054;PMS5003;48653;51.742;-1.256;2023-01-05T11:29:11;1;1;
62054;PMS5003;48653;51.742;-1.256;2023-01-05T11:31:32;3;0;
62054;PMS5003;48653;51.742;-1.256;2023-01-05T11:33:56;0;0;
62054;PMS5003;48653;51.742;-1.256;2023-01-05T11:36:21;0;0;
62054;PMS5003;48653;51.742;-1.256;2023-01-05T11:38:51;0;0;
62054;PMS5003;48653;51.742;-1.256;2023-01-05T11:41:11;4;1;
62054;PMS5003;48653;51.742;-1.256;2023-01-05T11:43:36;1;0;
62054;PMS5003;48653;51.742;-1.256;2023-01-05T11:46:02;0;0;
62054;PMS5003;48653;51.742;-1.256;2023-01-05T11:48:27;2;2;
62054;PMS5003;48653;51.742;-1.256;2023-01-05T11:50:52;1;0;
62054;PMS5003;48653;51.742;-1.256;2023-01-05T11:53:22;0;0;
62054;PMS5003;48653;51.742;-1.256;2023-01-05T11:55:41;2;0;
62054;PMS5003;48653;51.742;-1.256;2023-01-05T11:58:14;0;0;
62054;PMS5003;48653;51.742;-1.256;2023-01-05T12:00:33;0;0;
62054;PMS5003;48653;51.742;-1.256;2023-01-05T12:03:07;1;0;
62054;PMS5003;48653;51.742;-1.256;2023-01-05T12:05:23;0;0;
62054;PMS5003;48653;51.742;-1.256;2023-01-05T12:07:48;1;0;
62054;PMS5003;48653;51.742;-1.256;2023-01-05T12:10:22;0;0;
62054;PMS5003;48653;51.742;-1.256;2023-01-05T12:12:39;1;0;
62054;PMS5003;48653;51.742;-1.256;2023-01-05T12:15:06;0;0;
62054;PMS5003;48653;51.742;-1.256;2023-01-05T12:17:29;1;1;
62054;PMS5003;48653;51.742;-1.256;2023-01-05T12:19:55;0;0;
62054;PMS5003;48653;51.742;-1.256;2023-01-05T12:22:26;2;0;
62054;PMS5003;48653;51.742;-1.256;2023-01-05T12:24:45;0;0;
62054;PMS5003;48653;51.742;-1.256;2023-01-05T12:27:12;0;0;
62054;PMS5003;48653;51.742;-1.256;2023-01-05T12:32:06;0;0;
62054;PMS5003;48653;51.742;-1.256;2023-01-05T12:34:30;1;1;
62054;PMS5003;48653;51.742;-1.256;2023-01-05T12:36:52;0;0;
62054;PMS5003;48653;51.742;-1.256;2023-01-05T12:41:42;0;0;
62054;PMS5003;48653;51.742;-1.256;2023-01-05T12:44:09;1;0;
62054;PMS5003;48653;51.742;-1.256;2023-01-05T12:46:31;0;0;
62054;PMS5003;48653;51.742;-1.256;2023-01-05T12:48:53;2;0;
62054;PMS5003;48653;51.742;-1.256;2023-01-05T12:51:20;1;0;
62054;PMS5003;48653;51.742;-1.256;2023-01-05T12:53:46;0;0;
62054;PMS5003;48653;51.742;-1.256;2023-01-05T12:56:11;0;0;
62054;PMS5003;48653;51.742;-1.256;2023-01-05T12:58:34;2;2;
62054;PMS5003;48653;51.742;-1.256;2023-01-05T13:00:58;1;0;
62054;PMS5003;48653;51.742;-1.256;2023-01-05T13:03:24;0;0;
62054;PMS5003;48653;51.742;-1.256;2023-01-05T13:05:51;1;1;
62054;PMS5003;48653;51.742;-1.256;2023-01-05T13:08:14;2;1;
62054;PMS5003;48653;51.742;-1.256;2023-01-05T13:10:44;4;4;
62054;PMS5003;48653;51.742;-1.256;2023-01-05T13:13:05;33;25;
62054;PMS5003;48653;51.742;-1.256;2023-01-05T13:15:31;49;40;
62054;PMS5003;48653;51.742;-1.256;2023-01-05T13:17:55;62;48;
62054;PMS5003;48653;51.742;-1.256;2023-01-05T13:20:25;55;43;
62054;PMS5003;48653;51.742;-1.256;2023-01-05T13:22:45;26;17;
62054;PMS5003;48653;51.742;-1.256;2023-01-05T13:25:13;8;7;
62054;PMS5003;48653;51.742;-1.256;2023-01-05T13:27:35;4;3;
62054;PMS5003;48653;51.742;-1.256;2023-01-05T13:30:01;6;5;
62054;PMS5003;48653;51.742;-1.256;2023-01-05T13:32:34;0;0;
62054;PMS5003;48653;51.742;-1.256;2023-01-05T13:34:57;2;1;
62054;PMS5003;48653;51.742;-1.256;2023-01-05T13:39:46;3;0;
62054;PMS5003;48653;51.742;-1.256;2023-01-05T13:42:12;0;0;
62054;PMS5003;48653;51.742;-1.256;2023-01-05T13:44:36;4;1;
62054;PMS5003;48653;51.742;-1.256;2023-01-05T13:49:26;2;1;
62054;PMS5003;48653;51.742;-1.256;2023-01-05T13:51:49;4;2;
62054;PMS5003;48653;51.742;-1.256;2023-01-05T13:54:13;0;0;
62054;PMS5003;48653;51.742;-1.256;2023-01-05T13:56:37;0;0;
62054;PMS5003;48653;51.742;-1.256;2023-01-05T13:59:02;2;1;
62054;PMS5003;48653;51.742;-1.256;2023-01-05T14:01:32;2;1;
62054;PMS5003;48653;51.742;-1.256;2023-01-05T14:03:52;1;1;
62054;PMS5003;48653;51.742;-1.256;2023-01-05T14:06:18;0;0;
62054;PMS5003;48653;51.742;-1.256;2023-01-05T14:08:45;4;2;
62054;PMS5003;48653;51.742;-1.256;2023-01-05T14:11:09;2;1;
62054;PMS5003;48653;51.742;-1.256;2023-01-05T14:13:39;1;1;
62054;PMS5003;48653;51.742;-1.256;2023-01-05T14:15:57;1;0;
62054;PMS5003;48653;51.742;-1.256;2023-01-05T14:20:47;0;0;
62054;PMS5003;48653;51.742;-1.256;2023-01-05T14:25:43;4;2;
62054;PMS5003;48653;51.742;-1.256;2023-01-05T14:30:27;2;0;
62054;PMS5003;48653;51.742;-1.256;2023-01-05T14:32:53;2;2;
62054;PMS5003;48653;51.742;-1.256;2023-01-05T14:35:19;2;0;
62054;PMS5003;48653;51.742;-1.256;2023-01-05T14:37:50;2;1;
62054;PMS5003;48653;51.742;-1.256;2023-01-05T14:40:14;4;3;
62054;PMS5003;48653;51.742;-1.256;2023-01-05T14:42:33;2;2;
62054;PMS5003;48653;51.742;-1.256;2023-01-05T14:44:58;4;0;
62054;PMS5003;48653;51.742;-1.256;2023-01-05T14:49:51;0;0;
62054;PMS5003;48653;51.742;-1.256;2023-01-05T14:52:14;2;1;
62054;PMS5003;48653;51.742;-1.256;2023-01-05T14:59:28;2;1;
62054;PMS5003;48653;51.742;-1.256;2023-01-05T15:01:54;3;1;
62054;PMS5003;48653;51.742;-1.256;2023-01-05T15:04:19;4;1;
62054;PMS5003;48653;51.742;-1.256;2023-01-05T15:06:48;3;1;
62054;PMS5003;48653;51.742;-1.256;2023-01-05T15:14:03;3;1;
62054;PMS5003;48653;51.742;-1.256;2023-01-05T15:16:25;6;1;
62054;PMS5003;48653;51.742;-1.256;2023-01-05T15:18:53;5;3;
62054;PMS5003;48653;51.742;-1.256;2023-01-05T15:21:26;6;4;
62054;PMS5003;48653;51.742;-1.256;2023-01-05T15:23:49;3;2;
62054;PMS5003;48653;51.742;-1.256;2023-01-05T15:26:13;3;2;
62054;PMS5003;48653;51.742;-1.256;2023-01-05T15:33:23;4;2;
62054;PMS5003;48653;51.742;-1.256;2023-01-05T15:35:47;3;2;
62054;PMS5003;48653;51.742;-1.256;2023-01-05T15:38:18;8;3;
62054;PMS5003;48653;51.742;-1.256;2023-01-05T15:40:35;3;0;
62054;PMS5003;48653;51.742;-1.256;2023-01-05T15:43:00;6;0;
62054;PMS5003;48653;51.742;-1.256;2023-01-05T15:45:26;0;0;
62054;PMS5003;48653;51.742;-1.256;2023-01-05T15:47:56;4;2;
62054;PMS5003;48653;51.742;-1.256;2023-01-05T15:50:16;1;0;
62054;PMS5003;48653;51.742;-1.256;2023-01-05T15:52:40;5;2;
62054;PMS5003;48653;51.742;-1.256;2023-01-05T15:57:31;3;2;
62054;PMS5003;48653;51.742;-1.256;2023-01-05T15:59:56;1;1;
62054;PMS5003;48653;51.742;-1.256;2023-01-05T16:02:22;3;2;
62054;PMS5003;48653;51.742;-1.256;2023-01-05T16:04:46;2;0;
62054;PMS5003;48653;51.742;-1.256;2023-01-05T16:07:11;2;1;
62054;PMS5003;48653;51.742;-1.256;2023-01-05T16:09:37;7;3;
62054;PMS5003;48653;51.742;-1.256;2023-01-05T16:12:02;9;1;
62054;PMS5003;48653;51.742;-1.256;2023-01-05T16:14:27;5;2;
62054;PMS5003;48653;51.742;-1.256;2023-01-05T16:16:52;5;2;
62054;PMS5003;48653;51.742;-1.256;2023-01-05T16:19:17;4;2;
62054;PMS5003;48653;51.742;-1.256;2023-01-05T16:21:42;4;2;
62054;PMS5003;48653;51.742;-1.256;2023-01-05T16:24:07;2;2;
62054;PMS5003;48653;51.742;-1.256;2023-01-05T16:26:33;5;3;
62054;PMS5003;48653;51.742;-1.256;2023-01-05T16:28:56;4;1;
62054;PMS5003;48653;51.742;-1.256;2023-01-05T16:31:24;4;2;
62054;PMS5003;48653;51.742;-1.256;2023-01-05T16:33:46;7;2;
62054;PMS5003;48653;51.742;-1.256;2023-01-05T16:36:16;2;2;
62054;PMS5003;48653;51.742;-1.256;2023-01-05T16:38:37;2;2;
62054;PMS5003;48653;51.742;-1.256;2023-01-05T16:41:04;5;2;
62054;PMS5003;48653;51.742;-1.256;2023-01-05T16:43:28;1;1;
62054;PMS5003;48653;51.742;-1.256;2023-01-05T16:45:52;4;3;
62054;PMS5003;48653;51.742;-1.256;2023-01-05T16:53:09;3;2;
62054;PMS5003;48653;51.742;-1.256;2023-01-05T16:55:33;3;1;
62054;PMS5003;48653;51.742;-1.256;2023-01-05T16:57:58;3;2;
62054;PMS5003;48653;51.742;-1.256;2023-01-05T17:02:47;1;1;
62054;PMS5003;48653;51.742;-1.256;2023-01-05T17:05:13;4;3;
62054;PMS5003;48653;51.742;-1.256;2023-01-05T17:07:38;2;1;